createdAt,value
2024-02-14T00:00:02.901Z,101755.48
2024-02-14T00:02:37.507Z,101759.96
2024-02-14T00:05:12.103Z,101764.37
2024-02-14T00:07:44.863Z,101765.84
2024-02-14T00:10:18.068Z,101768.18
2024-02-14T00:12:50.876Z,101765.80
2024-02-14T00:15:23.401Z,101764.91
2024-02-14T00:17:58.816Z,101769.98
2024-02-14T00:20:31.367Z,101772.20
2024-02-14T00:23:03.897Z,101768.44
2024-02-14T00:25:36.254Z,101766.95
2024-02-14T00:28:09.825Z,101768.40
2024-02-14T00:30:42.193Z,101773.21
2024-02-14T00:33:14.839Z,101769.96
2024-02-14T00:35:47.359Z,101769.13
2024-02-14T00:38:20.424Z,101767.42
2024-02-14T00:40:52.698Z,101770.61
2024-02-14T00:43:25.018Z,101767.70
2024-02-14T00:45:58.339Z,101771.05
2024-02-14T00:48:30.734Z,101774.22
2024-02-14T00:51:03.552Z,101769.17
2024-02-14T00:53:36.387Z,101767.80
2024-02-14T00:56:13.765Z,101770.64
2024-02-14T00:58:46.477Z,101770.35
2024-02-14T01:01:18.935Z,101765.52
2024-02-14T01:03:51.902Z,101765.77
2024-02-14T01:06:26.115Z,101766.94
2024-02-14T01:08:58.969Z,101763.94
2024-02-14T01:11:31.577Z,101768.00
2024-02-14T01:14:04.202Z,101766.45
2024-02-14T01:16:44.115Z,101765.13
2024-02-14T01:19:16.641Z,101762.77
2024-02-14T01:21:49.956Z,101759.16
2024-02-14T01:24:23.539Z,101760.41
2024-02-14T01:26:57.361Z,101757.95
2024-02-14T01:29:29.800Z,101755.15
2024-02-14T01:32:02.435Z,101756.30
2024-02-14T01:34:35.069Z,101750.95
2024-02-14T01:37:07.472Z,101749.13
2024-02-14T01:39:39.812Z,101749.05
2024-02-14T01:42:12.248Z,101751.60
2024-02-14T01:44:45.039Z,101746.75
2024-02-14T01:47:20.306Z,101745.41
2024-02-14T01:49:52.759Z,101739.70
2024-02-14T01:52:25.168Z,101737.13
2024-02-14T01:54:58.255Z,101737.89
2024-02-14T01:57:31.109Z,101736.04
2024-02-14T02:00:09.906Z,101743.82
2024-02-14T02:02:42.490Z,101744.38
2024-02-14T02:05:14.959Z,101744.44
2024-02-14T02:07:50.052Z,101743.65
2024-02-14T02:10:26.851Z,101743.97
2024-02-14T02:13:03.352Z,101735.27
2024-02-14T02:15:35.801Z,101731.98
2024-02-14T02:18:09.107Z,101731.20
2024-02-14T02:20:44.209Z,101729.84
2024-02-14T02:23:16.993Z,101733.90
2024-02-14T02:25:49.536Z,101727.29
2024-02-14T02:28:21.879Z,101728.31
2024-02-14T02:30:57.435Z,101728.77
2024-02-14T02:33:31.902Z,101727.79
2024-02-14T02:36:04.700Z,101724.00
2024-02-14T02:38:38.007Z,101721.05
2024-02-14T02:41:10.514Z,101722.98
2024-02-14T02:43:42.703Z,101718.77
2024-02-14T02:46:15.696Z,101725.07
2024-02-14T02:48:49.272Z,101726.49
2024-02-14T02:51:21.821Z,101725.30
2024-02-14T02:53:55.700Z,101726.55
2024-02-14T02:56:29.173Z,101726.42
2024-02-14T02:59:04.585Z,101728.27
2024-02-14T03:01:41.551Z,101722.96
2024-02-14T03:04:16.255Z,101723.23
2024-02-14T03:06:48.768Z,101718.79
2024-02-14T03:09:21.065Z,101715.14
2024-02-14T03:11:53.790Z,101720.44
2024-02-14T03:14:26.768Z,101721.92
2024-02-14T03:17:01.358Z,101720.25
2024-02-14T03:19:39.610Z,101718.04
2024-02-14T03:22:12.528Z,101716.83
2024-02-14T03:24:45.278Z,101718.81
2024-02-14T03:27:18.725Z,101723.36
2024-02-14T03:29:53.144Z,101724.70
2024-02-14T03:32:25.545Z,101728.11
2024-02-14T03:34:57.980Z,101724.35
2024-02-14T03:37:30.593Z,101719.51
2024-02-14T03:40:09.469Z,101722.55
2024-02-14T03:42:41.839Z,101721.54
2024-02-14T03:45:15.603Z,101718.64
2024-02-14T03:47:47.955Z,101726.33
2024-02-14T03:50:20.617Z,101725.89
2024-02-14T03:52:52.915Z,101728.04
2024-02-14T03:55:26.185Z,101726.60
2024-02-14T03:57:58.730Z,101721.29
2024-02-14T04:00:32.611Z,101720.91
2024-02-14T04:03:08.562Z,101719.42
2024-02-14T04:05:42.147Z,101715.10
2024-02-14T04:08:14.592Z,101708.73
2024-02-14T04:10:47.494Z,101708.64
2024-02-14T04:13:20.375Z,101704.64
2024-02-14T04:15:53.955Z,101705.20
2024-02-14T04:18:27.036Z,101706.04
2024-02-14T04:21:00.918Z,101706.98
2024-02-14T04:23:34.589Z,101705.89
2024-02-14T04:26:07.058Z,101703.88
2024-02-14T04:28:41.855Z,101704.84
2024-02-14T04:31:14.028Z,101706.52
2024-02-14T04:33:51.014Z,101705.15
2024-02-14T04:36:24.793Z,101704.52
2024-02-14T04:38:58.234Z,101706.51
2024-02-14T04:41:30.931Z,101706.61
2024-02-14T04:44:03.390Z,101708.09
2024-02-14T04:46:36.151Z,101706.44
2024-02-14T04:49:08.731Z,101705.02
2024-02-14T04:51:41.446Z,101700.83
2024-02-14T04:54:15.036Z,101697.95
2024-02-14T04:56:50.419Z,101694.56
2024-02-14T04:59:24.769Z,101698.02
2024-02-14T05:01:57.984Z,101692.71
2024-02-14T05:04:31.134Z,101689.45
2024-02-14T05:07:03.509Z,101688.95
2024-02-14T05:09:36.017Z,101680.94
2024-02-14T05:12:12.286Z,101681.29
2024-02-14T05:14:44.977Z,101686.17
2024-02-14T05:17:18.198Z,101682.45
2024-02-14T05:19:50.870Z,101681.69
2024-02-14T05:22:24.071Z,101680.74
2024-02-14T05:24:56.375Z,101684.68
2024-02-14T05:27:31.421Z,101686.89
2024-02-14T05:30:06.918Z,101691.17
2024-02-14T05:32:41.280Z,101691.80
2024-02-14T05:35:14.215Z,101689.98
2024-02-14T05:37:52.329Z,101691.96
2024-02-14T05:40:25.769Z,101691.77
2024-02-14T05:42:58.481Z,101693.02
2024-02-14T05:45:30.834Z,101690.13
2024-02-14T05:48:03.162Z,101684.80
2024-02-14T05:50:36.588Z,101682.17
2024-02-14T05:53:09.110Z,101677.13
2024-02-14T05:55:41.424Z,101673.05
2024-02-14T05:58:14.065Z,101672.64
2024-02-14T06:00:46.628Z,101670.95
2024-02-14T06:03:19.918Z,101667.99
2024-02-14T06:05:52.384Z,101668.86
2024-02-14T06:08:25.457Z,101670.09
2024-02-14T06:10:57.947Z,101671.80
2024-02-14T06:13:32.658Z,101666.66
2024-02-14T06:16:06.715Z,101667.66
2024-02-14T06:18:40.983Z,101672.70
2024-02-14T06:21:13.605Z,101671.20
2024-02-14T06:23:48.307Z,101663.29
2024-02-14T06:26:20.764Z,101662.70
2024-02-14T06:28:55.875Z,101662.61
2024-02-14T06:31:28.986Z,101662.92
2024-02-14T06:34:01.979Z,101665.89
2024-02-14T06:36:34.913Z,101663.87
2024-02-14T06:39:09.398Z,101663.10
2024-02-14T06:41:42.786Z,101662.20
2024-02-14T06:44:16.331Z,101665.15
2024-02-14T06:46:48.627Z,101667.54
2024-02-14T06:49:21.458Z,101667.27
2024-02-14T06:51:54.008Z,101674.48
2024-02-14T06:54:26.272Z,101676.83
2024-02-14T06:56:58.546Z,101676.14
2024-02-14T06:59:31.227Z,101676.17
2024-02-14T07:02:13.027Z,101674.96
2024-02-14T07:04:46.541Z,101673.33
2024-02-14T07:07:19.233Z,101673.48
2024-02-14T07:09:54.901Z,101674.77
2024-02-14T07:12:28.222Z,101674.75
2024-02-14T07:15:00.683Z,101680.35
2024-02-14T07:17:33.387Z,101677.30
2024-02-14T07:20:07.231Z,101679.14
2024-02-14T07:22:39.840Z,101676.98
2024-02-14T07:25:12.905Z,101674.85
2024-02-14T07:27:47.263Z,101673.23
2024-02-14T07:30:20.234Z,101674.77
2024-02-14T07:32:53.107Z,101670.84
2024-02-14T07:35:27.121Z,101668.40
2024-02-14T07:37:59.548Z,101661.77
2024-02-14T07:40:33.336Z,101660.56
2024-02-14T07:43:07.571Z,101657.39
2024-02-14T07:45:39.854Z,101654.44
2024-02-14T07:48:12.905Z,101650.23
2024-02-14T07:50:45.872Z,101649.46
2024-02-14T07:53:19.888Z,101649.28
2024-02-14T07:55:53.346Z,101649.80
2024-02-14T07:58:25.850Z,101654.67
2024-02-14T08:00:58.273Z,101653.13
2024-02-14T08:03:30.522Z,101653.88
2024-02-14T08:06:03.210Z,101654.31
2024-02-14T08:08:36.423Z,101655.13
2024-02-14T08:11:09.166Z,101652.69
2024-02-14T08:13:42.476Z,101651.03
2024-02-14T08:16:14.795Z,101653.09
2024-02-14T08:18:47.224Z,101654.58
2024-02-14T08:21:20.443Z,101653.27
2024-02-14T08:23:52.864Z,101651.19
2024-02-14T08:26:25.630Z,101651.20
2024-02-14T08:28:59.446Z,101646.52
2024-02-14T08:31:34.005Z,101650.54
2024-02-14T08:34:06.424Z,101651.25
2024-02-14T08:36:42.116Z,101658.55
2024-02-14T08:39:15.108Z,101657.80
2024-02-14T08:41:48.453Z,101654.05
2024-02-14T08:44:21.244Z,101646.29
2024-02-14T08:46:55.526Z,101644.30
2024-02-14T08:49:27.801Z,101647.59
2024-02-14T08:52:00.100Z,101645.39
2024-02-14T08:54:34.159Z,101647.21
2024-02-14T08:57:07.033Z,101647.38
2024-02-14T08:59:39.772Z,101645.08
2024-02-14T09:02:12.105Z,101645.20
2024-02-14T09:04:45.651Z,101643.98
2024-02-14T09:07:18.567Z,101647.17
2024-02-14T09:09:51.193Z,101640.27
2024-02-14T09:12:23.986Z,101638.29
2024-02-14T09:14:58.295Z,101638.77
2024-02-14T09:17:31.795Z,101630.84
2024-02-14T09:20:07.761Z,101632.51
2024-02-14T09:22:42.487Z,101625.24
2024-02-14T09:25:15.588Z,101623.01
2024-02-14T09:27:49.013Z,101614.45
2024-02-14T09:30:28.116Z,101613.44
2024-02-14T09:33:08.173Z,101611.42
2024-02-14T09:35:45.919Z,101613.77
2024-02-14T09:38:18.702Z,101612.88
2024-02-14T09:40:51.806Z,101612.16
2024-02-14T09:43:30.806Z,101609.14
2024-02-14T09:46:04.412Z,101606.12
2024-02-14T09:48:41.129Z,101604.48
2024-02-14T09:51:15.494Z,101606.85
2024-02-14T09:53:49.337Z,101609.52
2024-02-14T09:56:24.785Z,101608.18
2024-02-14T09:58:58.306Z,101607.69
2024-02-14T10:01:30.991Z,101607.50
2024-02-14T10:04:04.473Z,101608.27
2024-02-14T10:06:39.178Z,101604.54
2024-02-14T10:09:12.238Z,101598.37
2024-02-14T10:11:46.274Z,101597.42
2024-02-14T10:14:20.439Z,101596.30
2024-02-14T10:16:52.797Z,101595.98
2024-02-14T10:19:25.870Z,101599.15
2024-02-14T10:22:04.143Z,101598.65
2024-02-14T10:24:36.651Z,101594.79
2024-02-14T10:27:13.769Z,101596.59
2024-02-14T10:29:46.121Z,101592.98
2024-02-14T10:32:20.151Z,101590.45
2024-02-14T10:34:52.609Z,101587.74
2024-02-14T10:37:27.421Z,101589.63
2024-02-14T10:40:03.097Z,101586.42
2024-02-14T10:42:36.111Z,101586.23
2024-02-14T10:45:10.538Z,101584.76
2024-02-14T10:47:46.377Z,101584.77
2024-02-14T10:50:20.627Z,101583.88
2024-02-14T10:52:55.699Z,101583.73
2024-02-14T10:55:35.579Z,101583.10
2024-02-14T10:58:09.333Z,101579.69
2024-02-14T11:00:43.640Z,101576.57
2024-02-14T11:03:17.108Z,101571.04
2024-02-14T11:05:51.311Z,101566.20
2024-02-14T11:08:26.188Z,101562.91
2024-02-14T11:11:00.949Z,101559.77
2024-02-14T11:13:34.877Z,101557.86
2024-02-14T11:16:12.315Z,101554.35
2024-02-14T11:18:44.884Z,101551.70
2024-02-14T11:21:21.608Z,101550.30
2024-02-14T11:24:09.796Z,101549.14
2024-02-14T11:26:48.445Z,101544.02
2024-02-14T11:29:23.848Z,101541.84
2024-02-14T11:32:04.354Z,101541.94
2024-02-14T11:34:38.571Z,101541.73
2024-02-14T11:37:16.394Z,101539.76
2024-02-14T11:39:50.894Z,101541.78
2024-02-14T11:42:27.083Z,101542.17
2024-02-14T11:45:00.209Z,101537.31
2024-02-14T11:47:33.288Z,101532.14
2024-02-14T11:50:07.476Z,101532.45
2024-02-14T11:52:39.786Z,101531.15
2024-02-14T11:55:14.725Z,101531.79
2024-02-14T11:57:49.396Z,101525.52
2024-02-14T12:00:22.868Z,101522.70
2024-02-14T12:02:56.281Z,101528.67
2024-02-14T12:05:28.975Z,101522.31
2024-02-14T12:08:02.149Z,101523.69
2024-02-14T12:10:37.642Z,101523.51
2024-02-14T12:13:13.212Z,101525.95
2024-02-14T12:15:47.922Z,101526.67
2024-02-14T12:18:21.923Z,101521.83
2024-02-14T12:21:07.140Z,101526.27
2024-02-14T12:23:40.248Z,101527.00
2024-02-14T12:26:18.618Z,101521.05
2024-02-14T12:28:54.672Z,101521.30
2024-02-14T12:31:27.735Z,101522.23
2024-02-14T12:34:03.864Z,101523.30
2024-02-14T12:36:37.183Z,101525.25
2024-02-14T12:39:14.056Z,101527.69
2024-02-14T12:41:46.721Z,101527.32
2024-02-14T12:44:19.882Z,101522.07
2024-02-14T12:46:52.516Z,101521.56
2024-02-14T12:49:27.426Z,101520.91
2024-02-14T12:51:59.894Z,101521.00
2024-02-14T12:54:33.757Z,101520.34
2024-02-14T12:57:06.958Z,101521.21
2024-02-14T12:59:39.272Z,101521.21
2024-02-14T13:02:12.287Z,101520.67
2024-02-14T13:04:45.325Z,101519.91
2024-02-14T13:07:18.648Z,101517.23
2024-02-14T13:09:52.482Z,101515.27
2024-02-14T13:12:25.501Z,101513.52
2024-02-14T13:14:57.926Z,101516.50
2024-02-14T13:17:30.883Z,101518.14
2024-02-14T13:20:05.034Z,101520.82
2024-02-14T13:22:38.035Z,101522.94
2024-02-14T13:25:12.144Z,101521.89
2024-02-14T13:27:45.990Z,101525.59
2024-02-14T13:30:20.235Z,101522.44
2024-02-14T13:32:53.251Z,101515.91
2024-02-14T13:35:25.985Z,101515.23
2024-02-14T13:37:59.347Z,101514.14
2024-02-14T13:40:31.773Z,101514.33
2024-02-14T13:43:04.475Z,101511.58
2024-02-14T13:45:45.235Z,101509.98
2024-02-14T13:48:18.882Z,101507.17
2024-02-14T13:50:52.747Z,101510.16
2024-02-14T13:53:25.259Z,101512.11
2024-02-14T13:55:57.956Z,101506.67
2024-02-14T13:58:30.540Z,101506.98
2024-02-14T14:01:03.077Z,101499.63
2024-02-14T14:03:37.936Z,101500.87
2024-02-14T14:06:11.341Z,101501.98
2024-02-14T14:08:44.274Z,101505.70
2024-02-14T14:11:16.795Z,101509.59
2024-02-14T14:13:49.080Z,101511.04
2024-02-14T14:16:23.078Z,101513.00
2024-02-14T14:18:55.629Z,101515.66
2024-02-14T14:21:28.100Z,101519.48
2024-02-14T14:24:00.442Z,101518.93
2024-02-14T14:26:33.108Z,101521.73
2024-02-14T14:29:06.000Z,101525.63
2024-02-14T14:31:38.400Z,101525.67
2024-02-14T14:34:11.094Z,101524.11
2024-02-14T14:36:43.454Z,101526.27
2024-02-14T14:39:15.804Z,101523.87
2024-02-14T14:41:48.160Z,101524.42
2024-02-14T14:44:20.784Z,101526.55
2024-02-14T14:46:53.123Z,101527.05
2024-02-14T14:49:25.639Z,101523.23
2024-02-14T14:51:58.803Z,101526.45
2024-02-14T14:54:31.859Z,101520.36
2024-02-14T14:57:10.961Z,101516.55
2024-02-14T14:59:44.666Z,101511.52
2024-02-14T15:02:17.193Z,101513.67
2024-02-14T15:04:51.199Z,101509.64
2024-02-14T15:07:23.720Z,101508.10
2024-02-14T15:09:56.065Z,101508.77
2024-02-14T15:12:28.323Z,101509.34
2024-02-14T15:15:00.923Z,101512.00
2024-02-14T15:17:33.319Z,101510.84
2024-02-14T15:20:06.289Z,101514.75
2024-02-14T15:22:38.758Z,101518.09
2024-02-14T15:25:12.136Z,101524.40
2024-02-14T15:27:55.713Z,101524.77
2024-02-14T15:30:46.511Z,101523.88
2024-02-14T15:33:25.621Z,101521.95
2024-02-14T15:35:59.251Z,101524.12
2024-02-14T15:38:31.922Z,101522.56
2024-02-14T15:41:05.770Z,101526.11
2024-02-14T15:43:38.315Z,101522.09
2024-02-14T15:46:10.652Z,101525.62
2024-02-14T15:48:43.568Z,101525.96
2024-02-14T15:51:19.051Z,101524.70
2024-02-14T15:53:51.581Z,101526.98
2024-02-14T15:56:24.893Z,101529.60
2024-02-14T15:58:58.766Z,101527.71
2024-02-14T16:01:30.990Z,101531.23
2024-02-14T16:04:03.294Z,101523.92
2024-02-14T16:06:36.457Z,101524.33
2024-02-14T16:09:10.348Z,101525.05
2024-02-14T16:11:43.804Z,101524.02
2024-02-14T16:14:18.208Z,101525.40
2024-02-14T16:16:51.039Z,101522.09
2024-02-14T16:19:23.304Z,101528.09
2024-02-14T16:22:02.383Z,101524.27
2024-02-14T16:24:42.329Z,101522.70
2024-02-14T16:27:15.117Z,101520.98
2024-02-14T16:29:47.884Z,101520.64
2024-02-14T16:32:20.918Z,101527.48
2024-02-14T16:34:53.219Z,101530.44
2024-02-14T16:37:25.504Z,101527.10
2024-02-14T16:39:58.433Z,101530.48
2024-02-14T16:42:30.927Z,101531.73
2024-02-14T16:45:05.531Z,101531.08
2024-02-14T16:47:38.653Z,101535.52
2024-02-14T16:50:11.880Z,101534.48
2024-02-14T16:52:44.263Z,101538.16
2024-02-14T16:55:16.533Z,101542.70
2024-02-14T16:57:48.846Z,101539.38
2024-02-14T17:00:22.742Z,101541.89
2024-02-14T17:02:55.249Z,101544.39
2024-02-14T17:05:28.019Z,101546.00
2024-02-14T17:08:00.654Z,101543.77
2024-02-14T17:10:33.183Z,101539.20
2024-02-14T17:13:05.673Z,101542.54
2024-02-14T17:15:38.202Z,101541.45
2024-02-14T17:18:10.994Z,101542.52
2024-02-14T17:20:44.293Z,101542.89
2024-02-14T17:23:17.015Z,101546.25
2024-02-14T17:25:50.504Z,101545.95
2024-02-14T17:28:22.917Z,101547.36
2024-02-14T17:30:55.198Z,101545.11
2024-02-14T17:33:27.791Z,101547.21
2024-02-14T17:36:00.198Z,101545.83
2024-02-14T17:38:33.072Z,101544.48
2024-02-14T17:41:05.714Z,101547.88
2024-02-14T17:43:38.307Z,101545.82
2024-02-14T17:46:11.783Z,101544.98
2024-02-14T17:48:44.315Z,101539.04
2024-02-14T17:51:17.357Z,101539.88
2024-02-14T17:53:50.814Z,101544.77
2024-02-14T17:56:26.276Z,101543.55
2024-02-14T17:58:58.780Z,101546.23
2024-02-14T18:01:31.094Z,101542.55
2024-02-14T18:04:06.030Z,101544.36
2024-02-14T18:06:40.162Z,101544.23
2024-02-14T18:09:13.026Z,101545.13
2024-02-14T18:11:45.922Z,101542.69
2024-02-14T18:14:18.678Z,101540.97
2024-02-14T18:16:52.438Z,101541.21
2024-02-14T18:19:24.889Z,101543.01
2024-02-14T18:21:57.785Z,101542.16
2024-02-14T18:24:30.053Z,101544.13
2024-02-14T18:27:02.598Z,101541.52
2024-02-14T18:29:35.279Z,101542.58
2024-02-14T18:32:09.605Z,101544.19
2024-02-14T18:34:42.258Z,101547.20
2024-02-14T18:37:14.787Z,101541.98
2024-02-14T18:39:47.140Z,101543.58
2024-02-14T18:42:19.476Z,101543.06
2024-02-14T18:44:51.888Z,101540.47
2024-02-14T18:47:24.880Z,101540.83
2024-02-14T18:49:57.265Z,101542.60
2024-02-14T18:52:29.563Z,101541.42
2024-02-14T18:55:02.034Z,101544.64
2024-02-14T18:57:34.570Z,101544.15
2024-02-14T19:00:11.452Z,101544.36
2024-02-14T19:02:44.357Z,101542.11
2024-02-14T19:05:16.921Z,101544.23
2024-02-14T19:07:49.280Z,101540.58
2024-02-14T19:10:22.114Z,101540.29
2024-02-14T19:12:54.533Z,101543.83
2024-02-14T19:15:26.892Z,101541.79
2024-02-14T19:17:59.266Z,101543.57
2024-02-14T19:20:32.126Z,101541.46
2024-02-14T19:23:08.339Z,101540.78
2024-02-14T19:25:40.747Z,101546.96
2024-02-14T19:28:13.468Z,101543.84
2024-02-14T19:30:45.982Z,101545.12
2024-02-14T19:33:19.237Z,101546.55
2024-02-14T19:35:54.840Z,101544.31
2024-02-14T19:38:29.370Z,101543.80
2024-02-14T19:41:03.951Z,101543.78
2024-02-14T19:43:39.909Z,101541.70
2024-02-14T19:46:13.441Z,101542.27
2024-02-14T19:48:46.217Z,101543.52
2024-02-14T19:51:20.351Z,101542.15
2024-02-14T19:53:52.926Z,101542.73
2024-02-14T19:56:25.716Z,101544.52
2024-02-14T19:58:58.001Z,101546.98
2024-02-14T20:01:30.188Z,101546.64
2024-02-14T20:04:02.937Z,101546.33
2024-02-14T20:06:35.506Z,101547.61
2024-02-14T20:09:08.716Z,101548.69
2024-02-14T20:11:41.206Z,101547.67
2024-02-14T20:14:13.675Z,101546.98
2024-02-14T20:16:47.881Z,101548.91
2024-02-14T20:19:20.646Z,101552.08
2024-02-14T20:21:53.177Z,101550.73
2024-02-14T20:24:26.361Z,101550.73
2024-02-14T20:26:58.825Z,101554.11
2024-02-14T20:29:31.251Z,101551.32
2024-02-14T20:32:04.024Z,101552.56
2024-02-14T20:34:36.551Z,101550.45
2024-02-14T20:37:09.787Z,101550.84
2024-02-14T20:39:42.124Z,101549.28
2024-02-14T20:42:16.128Z,101553.70
2024-02-14T20:44:48.834Z,101552.33
2024-02-14T20:47:21.179Z,101553.21
2024-02-14T20:49:53.847Z,101552.90
2024-02-14T20:52:26.440Z,101555.36
2024-02-14T20:54:59.718Z,101557.48
2024-02-14T20:57:32.070Z,101556.96
2024-02-14T21:00:10.080Z,101557.88
2024-02-14T21:02:41.120Z,101560.01
2024-02-14T21:05:15.062Z,101558.98
2024-02-14T21:07:47.609Z,101560.39
2024-02-14T21:10:21.147Z,101561.09
2024-02-14T21:12:53.907Z,101559.19
2024-02-14T21:15:26.809Z,101560.08
2024-02-14T21:17:59.513Z,101559.55
2024-02-14T21:20:32.300Z,101558.71
2024-02-14T21:23:04.781Z,101561.36
2024-02-14T21:25:37.789Z,101559.95
2024-02-14T21:28:10.899Z,101561.36
2024-02-14T21:30:43.181Z,101558.91
2024-02-14T21:33:15.669Z,101559.63
2024-02-14T21:35:50.684Z,101558.08
2024-02-14T21:38:23.195Z,101558.13
2024-02-14T21:40:55.502Z,101559.20
2024-02-14T21:43:27.928Z,101556.90
2024-02-14T21:46:00.254Z,101556.71
2024-02-14T21:48:32.943Z,101556.38
2024-02-14T21:51:10.691Z,101557.44
2024-02-14T21:53:43.292Z,101554.15
2024-02-14T21:56:16.817Z,101554.88
2024-02-14T21:58:49.330Z,101552.09
2024-02-14T22:01:21.857Z,101554.21
2024-02-14T22:03:54.437Z,101554.91
2024-02-14T22:06:27.059Z,101554.78
2024-02-14T22:08:59.724Z,101554.10
2024-02-14T22:11:32.400Z,101557.45
2024-02-14T22:14:05.291Z,101555.89
2024-02-14T22:16:38.685Z,101554.46
2024-02-14T22:19:14.052Z,101555.33
2024-02-14T22:21:47.024Z,101555.52
2024-02-14T22:24:19.526Z,101557.30
2024-02-14T22:26:52.143Z,101559.43
2024-02-14T22:29:24.656Z,101559.13
2024-02-14T22:31:57.085Z,101560.38
2024-02-14T22:34:29.565Z,101557.90
2024-02-14T22:37:05.140Z,101557.54
2024-02-14T22:39:37.612Z,101556.14
2024-02-14T22:42:10.510Z,101561.11
2024-02-14T22:44:43.087Z,101560.59
2024-02-14T22:47:15.756Z,101561.27
2024-02-14T22:49:48.394Z,101561.28
2024-02-14T22:52:23.224Z,101561.45
2024-02-14T22:54:55.577Z,101559.66
2024-02-14T22:57:28.269Z,101559.65
2024-02-14T23:00:00.902Z,101561.42
2024-02-14T23:02:34.158Z,101564.63
2024-02-14T23:05:08.422Z,101562.17
2024-02-14T23:07:41.072Z,101563.05
2024-02-14T23:10:13.888Z,101555.61
2024-02-14T23:12:46.642Z,101557.05
2024-02-14T23:15:19.714Z,101556.73
2024-02-14T23:17:52.251Z,101556.20
2024-02-14T23:20:24.669Z,101557.63
2024-02-14T23:22:57.588Z,101558.35
2024-02-14T23:25:33.638Z,101558.36
2024-02-14T23:28:06.227Z,101557.48
2024-02-14T23:30:41.041Z,101556.08
2024-02-14T23:33:14.411Z,101560.49
2024-02-14T23:35:47.194Z,101561.04
2024-02-14T23:38:20.672Z,101563.69
2024-02-14T23:40:53.236Z,101559.83
2024-02-14T23:43:25.709Z,101562.81
2024-02-14T23:45:58.063Z,101561.05
2024-02-14T23:48:30.528Z,101557.88
2024-02-14T23:51:03.714Z,101556.66
2024-02-14T23:53:36.095Z,101555.95
2024-02-14T23:56:09.323Z,101558.24
2024-02-14T23:58:41.692Z,101559.65
